Main page
METAR-TAF:

METAR-TAF

Airports :

Qaisumah, Saudi Arabia

Al Qaisumah/Hafr Al Batin Airport

latitude: 28-19N, longitude: 046-07E, elevation: 358 m

Current weather observation

The report was made 24 minutes ago, at 07:00 UTC
Wind 12 kt from the North
Temperature 42°C
Humidity 22%
Pressure 1006 hPa
Visibility 10 km or more
no clouds below 1500 m and no cumulonimbus

METAR: OEPA 190700Z 36012KT CAVOK 42/16 Q1006 NOSIG

Time: 10:24 (07:24 UTC)

Forecast

The report was made 8 hours and 24 minutes ago, at 23:00 UTC
Forecast valid from 19 at 00 UTC to 20 at 06 UTC
Wind 3 kt from variable directions
Visibility: 7000 m
Few clouds at a height of 4000 ft
Scattered clouds at a height of 10000 ft
Becoming
from 19 at 10 UTC to 19 at 12 UTC
Wind 14 kt from the East/Northeast
Temporary
from 19 at 10 UTC to 19 at 18 UTC
Visibility: 4000 m
Scattered clouds at a height of 4000 ft
Blowing dust

TAF: OEPA 182300Z 1900/2006 VRB03KT 7000 FEW040 SCT100 BECMG 1910/1912 06014KT TEMPO 1910/1918 4000 BLDU SCT040

Weather observations and forecasts of more than 4000 airports (METAR and TAF reports).

The available stations are represented by yellow and red dots on the map.

Hover mouse over dot to see the name of the station.

Then click to see weather observations and forecasts.

To change the map : click on the green buttons with a black cross to zoom in, on the green button with a dash to zoom out, or on the green arrows for adjacent maps.


METAR-TAF: